• Join FlightAware (Why Join?)
  • Login
  • US Flag 
10:01PM EST


 

Airport Tracker/Info


-or-


 

Live Flight TrackerFlight Track Log ✈ CES2930 ✈ 07-Sep-2013 ✈ ZSWZ / WNZ - ZSSH / HIA

Flight Track Log - Related Links

Times and Time Zones

All times are in EDT time to prevent confusion due to time zone crossing. See the CES2930 flight status page for this flight to view local times or setup timezone preferences in your user account.

Time Position Orientation Groundspeed Altitude Reporting Facility
EDT Latitude Longitude Course Direction KTS MPH feet Rate Location/Type
08:59AM 28.8786 120.5854 346° North  Level Estimated
09:00AM 28.9530 120.5646 346° North  Level Estimated
09:01AM 29.0273 120.5439 346° North  Level Estimated
09:02AM 29.1016 120.5231 346° North  Level Estimated
09:03AM 29.1759 120.5023 346° North  Level Estimated
09:04AM 29.2502 120.4815 346° North  Level Estimated
09:05AM 29.3245 120.4606 346° North  Level Estimated
09:06AM 29.3988 120.4398 346° North  Level Estimated
09:07AM 29.4731 120.4188 346° North  Level Estimated
09:08AM 29.5474 120.3979 346° North  Level Estimated
09:09AM 29.6217 120.3769 346° North  Level Estimated
09:10AM 29.6960 120.3559 346° North  Level Estimated
09:11AM 29.7703 120.3348 346° North  Level Estimated
09:12AM 29.8445 120.3138 346° North  Level Estimated
09:13AM 29.9188 120.2926 346° North  Level Estimated
09:14AM 29.9931 120.2715 346° North  Level Estimated
09:15AM 30.0674 120.2503 346° North  Level Estimated
09:16AM 30.1416 120.2291 346° North  Level Estimated
09:17AM 30.2159 120.2079 346° North  Level Estimated
09:18AM 30.2901 120.1866 346° North  Level Estimated
09:19AM 30.3644 120.1653 346° North  Level Estimated
09:20AM 30.4387 120.1440 346° North  Level Estimated
09:21AM 30.5129 120.1226 346° North  Level Estimated
09:22AM 30.5872 120.1012 346° North  Level Estimated
09:23AM 30.6614 120.0798 346° North  Level Estimated
09:24AM 30.7356 120.0583 346° North  Level Estimated
09:25AM 30.8099 120.0368 346° North  Level Estimated
09:26AM 30.8841 120.0153 346° North  Level Estimated
09:27AM 30.9583 119.9938 346° North  Level Estimated
09:28AM 31.0326 119.9722 346° North  Level Estimated
09:29AM 31.1068 119.9505 346° North  Level Estimated
09:30AM 31.1810 119.9289 346° North  Level Estimated
09:31AM 31.2552 119.9072 346° North  Level Estimated
09:32AM 31.3294 119.8854 346° North  Level Estimated
09:33AM 31.4036 119.8637 346° North  Level Estimated
09:34AM 31.4778 119.8419 346° North  Level Estimated
09:35AM 31.5520 119.8200 346° North  Level Estimated
09:36AM 31.6262 119.7982 346° North  Level Estimated
09:37AM 31.7004 119.7763 346° North  Level Estimated
09:38AM 31.7746 119.7543 346° North  Level Estimated
09:39AM 31.8488 119.7324 346° North  Level Estimated
09:40AM 31.9230 119.7103 346° North  Level Estimated
09:41AM 31.9971 119.6883 346° North  Level Estimated
09:42AM 32.0713 119.6662 346° North  Level Estimated
09:43AM 32.1455 119.6441 346° North  Level Estimated
09:44AM 32.2196 119.6219 346° North  Level Estimated
09:45AM 32.2938 119.5997 346° North  Level Estimated
09:46AM 32.3680 119.5775 346° North  Level Estimated
09:47AM 32.4421 119.5553 346° North  Level Estimated
09:48AM 32.5163 119.5330 346° North  Level Estimated
09:49AM 32.5904 119.5106 346° North  Level Estimated
09:50AM 32.6645 119.4883 346° North  Level Estimated
09:51AM 32.7387 119.4658 346° North  Level Estimated
09:52AM 32.8128 119.4434 346° North  Level Estimated
09:53AM 32.8869 119.4209 346° North  Level Estimated
09:54AM 32.9610 119.3984 346° North  Level Estimated
09:55AM 33.0352 119.3758 346° North  Level Estimated
09:56AM 33.1093 119.3532 346° North  Level Estimated
09:57AM 33.1834 119.3306 346° North  Level Estimated
09:58AM 33.2575 119.3079 346° North  Level Estimated
09:59AM 33.3316 119.2852 346° North  Level Estimated
10:00AM 33.4057 119.2625 346° North  Level Estimated
10:01AM 33.4798 119.2397 346° North  Level Estimated
10:02AM 33.5539 119.2168 346° North  Level Estimated
10:03AM 33.6280 119.1940 346° North  Level Estimated
10:04AM 33.7021 119.1711 346° North  Level Estimated
10:05AM 33.7761 119.1481 346° North  Level Estimated
10:06AM 33.7772 119.1478 346° North  Level Estimated
10:07AM 33.7772 119.1478 320° Northwest  Level Estimated
10:08AM 33.7772 119.1478 320° Northwest  Level Estimated
10:09AM 33.7772 119.1478 320° Northwest  Level Estimated
10:10AM 33.7772 119.1478 320° Northwest  Level Estimated
10:11AM 33.7772 119.1478 320° Northwest  Level Estimated
10:12AM 33.7772 119.1478 320° Northwest  Level Estimated
10:13AM 33.7772 119.1478 320° Northwest  Level Estimated
10:14AM 33.7772 119.1478 320° Northwest  Level Estimated
10:15AM 33.7772 119.1478 320° Northwest  Level Estimated
10:16AM 33.7772 119.1478 320° Northwest  Level Estimated
10:17AM 33.7772 119.1478 320° Northwest  Level Estimated
10:18AM 33.7772 119.1478 320° Northwest  Level Estimated
10:19AM 33.7772 119.1478 320° Northwest  Level Estimated
10:20AM 33.7772 119.1478 320° Northwest  Level Estimated